Aleknagik, AK

1:22 PM AKST on December 18, 2014 (GMT -0900)
Dillingham | Change Station
CLOSE
Current Station
Airport
Location: Dillingham,
Elevation: 95 ft
Nearby Weather Stations

Elev 95 ft 59.04 °N, 158.51 °W | Updated 32 minutes ago

Mostly Cloudy
Mostly Cloudy
28 °F
Feels Like 18 °F
N
13
Wind Variable Wind from NW
Gusts 22 mph

Today
High -- | Low -- °F
--% Chance of Precip.
Yesterday
High -- | Low -- °F
Precip. -- in
10:28 AM 4:34 PM
Waning Crescent, 12% visible
Pressure 29.35 in
Visibility 15.0 miles
Clouds Scattered Clouds 5000 ft
Mostly Cloudy 20000 ft
Windchill 18 °F
Dew Point 25 °F
Humidity 86%
Rainfall 0.00 in
Snow Depth Not available.
UV 0 out of 12
Pollen Not available.
Air Quality Not available.
Flu Activity Not available.
METAR PADL 182150Z 32011G19KT 15SM SCT050 BKN200 M02/M04 A2935

More Conditions Fewer Conditions

Pressure 29.35 in
Visibility 15.0 miles
Clouds Scattered Clouds 5000 ft
Mostly Cloudy 20000 ft
Windchill 18 °F
Dew Point 25 °F
Humidity 86%
Rainfall 0.00 in
Snow Depth Not available.
UV 0 out of 12
Pollen Not available.
Air Quality Not available.
Flu Activity Not available.
METAR PADL 182150Z 32011G19KT 15SM SCT050 BKN200 M02/M04 A2935

More Conditions Fewer Conditions

10-Day Weather Forecast

Almanac

Astronomy

Dec. 18, 2014 Rise Set
Actual Time
Civil Twilight
Nautical Twilight
Astronomical Twilight
Moon
Length of Visible Light
Length of Day
Tomorrow will be .
, % of the Moon is Illuminated

Today's Extremes

State Highs State Lows

Community

WunderPhotos

Upload Photos

1,779,010 photos uploaded!

WunderBlogs® & News

Nearby

Air Quality

  Air Quality AQ Index Pollutant
Not available.

Snow Depth

Station Depth Elevation

Earthquake Activity

City Distance Mag. Time & Date
Minimum magnitude displayed is 2.5.

Coastal Water Temperatures

Place Temperature

Nearby Weather Stations